sensor_id;sensor_type;location;lat;lon;timestamp;P1;durP1;ratioP1;P2;durP2;ratioP2
84244;SDS011;74383;44.552;18.100;2024-02-26T00:01:38;53.70;;;29.45;;
84244;SDS011;74383;44.552;18.100;2024-02-26T00:04:03;44.00;;;27.92;;
84244;SDS011;74383;44.552;18.100;2024-02-26T00:06:29;45.25;;;27.20;;
84244;SDS011;74383;44.552;18.100;2024-02-26T00:08:55;51.00;;;29.25;;
84244;SDS011;74383;44.552;18.100;2024-02-26T00:11:21;49.95;;;29.60;;
84244;SDS011;74383;44.552;18.100;2024-02-26T00:13:47;42.17;;;28.15;;
84244;SDS011;74383;44.552;18.100;2024-02-26T00:16:12;44.83;;;29.27;;
84244;SDS011;74383;44.552;18.100;2024-02-26T00:18:38;52.08;;;30.10;;
84244;SDS011;74383;44.552;18.100;2024-02-26T00:21:03;61.42;;;32.30;;
84244;SDS011;74383;44.552;18.100;2024-02-26T00:23:29;67.38;;;33.85;;
84244;SDS011;74383;44.552;18.100;2024-02-26T00:25:55;56.60;;;30.35;;
84244;SDS011;74383;44.552;18.100;2024-02-26T00:28:21;55.33;;;29.08;;
84244;SDS011;74383;44.552;18.100;2024-02-26T00:30:47;55.67;;;29.00;;
84244;SDS011;74383;44.552;18.100;2024-02-26T00:33:14;39.30;;;22.83;;
84244;SDS011;74383;44.552;18.100;2024-02-26T00:35:41;38.95;;;21.83;;
84244;SDS011;74383;44.552;18.100;2024-02-26T00:38:07;35.70;;;18.90;;
84244;SDS011;74383;44.552;18.100;2024-02-26T00:40:33;32.50;;;19.17;;
84244;SDS011;74383;44.552;18.100;2024-02-26T00:42:59;44.28;;;22.77;;
84244;SDS011;74383;44.552;18.100;2024-02-26T00:45:25;33.80;;;21.08;;
84244;SDS011;74383;44.552;18.100;2024-02-26T00:47:50;42.60;;;22.70;;
84244;SDS011;74383;44.552;18.100;2024-02-26T00:50:16;42.30;;;23.35;;
84244;SDS011;74383;44.552;18.100;2024-02-26T00:52:42;42.13;;;23.15;;
84244;SDS011;74383;44.552;18.100;2024-02-26T00:55:07;35.33;;;21.50;;
84244;SDS011;74383;44.552;18.100;2024-02-26T00:57:33;34.47;;;20.75;;
84244;SDS011;74383;44.552;18.100;2024-02-26T00:59:59;40.88;;;22.67;;
84244;SDS011;74383;44.552;18.100;2024-02-26T01:02:26;40.80;;;22.35;;
84244;SDS011;74383;44.552;18.100;2024-02-26T01:04:52;39.47;;;22.42;;
84244;SDS011;74383;44.552;18.100;2024-02-26T01:07:17;37.60;;;21.80;;
84244;SDS011;74383;44.552;18.100;2024-02-26T01:09:44;38.33;;;22.13;;
84244;SDS011;74383;44.552;18.100;2024-02-26T01:12:09;45.95;;;22.55;;
84244;SDS011;74383;44.552;18.100;2024-02-26T01:14:35;40.55;;;22.17;;
84244;SDS011;74383;44.552;18.100;2024-02-26T01:17:00;40.33;;;22.10;;
84244;SDS011;74383;44.552;18.100;2024-02-26T01:19:26;40.13;;;22.02;;
84244;SDS011;74383;44.552;18.100;2024-02-26T01:21:52;40.58;;;20.58;;
84244;SDS011;74383;44.552;18.100;2024-02-26T01:24:18;42.13;;;22.20;;
84244;SDS011;74383;44.552;18.100;2024-02-26T01:26:44;48.13;;;21.55;;
84244;SDS011;74383;44.552;18.100;2024-02-26T01:29:09;47.22;;;22.20;;
84244;SDS011;74383;44.552;18.100;2024-02-26T01:31:35;52.83;;;23.35;;
84244;SDS011;74383;44.552;18.100;2024-02-26T01:34:00;61.22;;;25.83;;
84244;SDS011;74383;44.552;18.100;2024-02-26T01:36:26;51.33;;;23.67;;
84244;SDS011;74383;44.552;18.100;2024-02-26T01:38:52;50.95;;;22.08;;
84244;SDS011;74383;44.552;18.100;2024-02-26T01:41:18;47.63;;;22.27;;
84244;SDS011;74383;44.552;18.100;2024-02-26T01:43:43;53.03;;;24.15;;
84244;SDS011;74383;44.552;18.100;2024-02-26T01:46:10;49.20;;;22.45;;
84244;SDS011;74383;44.552;18.100;2024-02-26T01:48:40;47.75;;;22.80;;
84244;SDS011;74383;44.552;18.100;2024-02-26T01:51:06;54.47;;;23.98;;
84244;SDS011;74383;44.552;18.100;2024-02-26T01:53:32;52.10;;;24.67;;
84244;SDS011;74383;44.552;18.100;2024-02-26T01:55:59;43.97;;;23.13;;
84244;SDS011;74383;44.552;18.100;2024-02-26T01:58:24;49.47;;;22.42;;
84244;SDS011;74383;44.552;18.100;2024-02-26T02:00:50;48.80;;;22.08;;
84244;SDS011;74383;44.552;18.100;2024-02-26T02:03:16;44.35;;;20.80;;
84244;SDS011;74383;44.552;18.100;2024-02-26T02:05:41;49.13;;;22.65;;
84244;SDS011;74383;44.552;18.100;2024-02-26T02:08:08;46.25;;;20.02;;
84244;SDS011;74383;44.552;18.100;2024-02-26T02:10:36;38.50;;;21.02;;
84244;SDS011;74383;44.552;18.100;2024-02-26T02:13:03;42.22;;;20.05;;
84244;SDS011;74383;44.552;18.100;2024-02-26T02:15:28;41.88;;;19.80;;
84244;SDS011;74383;44.552;18.100;2024-02-26T02:17:54;42.40;;;21.08;;
84244;SDS011;74383;44.552;18.100;2024-02-26T02:20:24;46.47;;;20.67;;
84244;SDS011;74383;44.552;18.100;2024-02-26T02:22:52;43.85;;;20.90;;
84244;SDS011;74383;44.552;18.100;2024-02-26T02:25:18;49.35;;;21.95;;
84244;SDS011;74383;44.552;18.100;2024-02-26T02:27:43;41.00;;;20.15;;
84244;SDS011;74383;44.552;18.100;2024-02-26T02:30:10;46.25;;;21.48;;
84244;SDS011;74383;44.552;18.100;2024-02-26T02:32:37;58.78;;;24.13;;
84244;SDS011;74383;44.552;18.100;2024-02-26T02:35:05;67.10;;;27.25;;
84244;SDS011;74383;44.552;18.100;2024-02-26T02:37:31;58.05;;;25.75;;
84244;SDS011;74383;44.552;18.100;2024-02-26T02:39:57;51.47;;;23.25;;
84244;SDS011;74383;44.552;18.100;2024-02-26T02:42:23;53.72;;;24.20;;
84244;SDS011;74383;44.552;18.100;2024-02-26T02:44:49;52.35;;;22.90;;
84244;SDS011;74383;44.552;18.100;2024-02-26T02:47:14;46.40;;;22.88;;
84244;SDS011;74383;44.552;18.100;2024-02-26T02:49:40;52.90;;;22.65;;
84244;SDS011;74383;44.552;18.100;2024-02-26T02:52:06;54.35;;;23.33;;
84244;SDS011;74383;44.552;18.100;2024-02-26T02:54:32;47.72;;;22.38;;
84244;SDS011;74383;44.552;18.100;2024-02-26T02:56:58;48.42;;;22.23;;
84244;SDS011;74383;44.552;18.100;2024-02-26T02:59:23;40.05;;;20.55;;
84244;SDS011;74383;44.552;18.100;2024-02-26T03:01:49;42.47;;;21.13;;
84244;SDS011;74383;44.552;18.100;2024-02-26T03:04:14;35.00;;;17.85;;
84244;SDS011;74383;44.552;18.100;2024-02-26T03:06:40;35.97;;;17.33;;
84244;SDS011;74383;44.552;18.100;2024-02-26T03:09:05;26.67;;;14.45;;
84244;SDS011;74383;44.552;18.100;2024-02-26T03:11:31;34.83;;;16.88;;
84244;SDS011;74383;44.552;18.100;2024-02-26T03:13:56;38.08;;;17.95;;
84244;SDS011;74383;44.552;18.100;2024-02-26T03:16:22;38.05;;;18.90;;
84244;SDS011;74383;44.552;18.100;2024-02-26T03:18:48;39.45;;;18.42;;
84244;SDS011;74383;44.552;18.100;2024-02-26T03:21:13;35.95;;;18.45;;
84244;SDS011;74383;44.552;18.100;2024-02-26T03:23:39;37.97;;;19.77;;
84244;SDS011;74383;44.552;18.100;2024-02-26T03:26:04;32.22;;;16.50;;
84244;SDS011;74383;44.552;18.100;2024-02-26T03:28:30;25.48;;;15.23;;
84244;SDS011;74383;44.552;18.100;2024-02-26T03:30:58;25.00;;;14.10;;
84244;SDS011;74383;44.552;18.100;2024-02-26T03:33:24;23.67;;;13.43;;
84244;SDS011;74383;44.552;18.100;2024-02-26T03:35:50;23.15;;;13.60;;
84244;SDS011;74383;44.552;18.100;2024-02-26T03:38:15;22.05;;;13.68;;
84244;SDS011;74383;44.552;18.100;2024-02-26T03:40:41;25.05;;;14.48;;
84244;SDS011;74383;44.552;18.100;2024-02-26T03:43:07;25.73;;;15.00;;
84244;SDS011;74383;44.552;18.100;2024-02-26T03:45:32;26.45;;;14.40;;
84244;SDS011;74383;44.552;18.100;2024-02-26T03:47:58;27.50;;;14.73;;
84244;SDS011;74383;44.552;18.100;2024-02-26T03:50:24;27.10;;;14.43;;
84244;SDS011;74383;44.552;18.100;2024-02-26T03:52:49;24.45;;;14.38;;
84244;SDS011;74383;44.552;18.100;2024-02-26T03:55:15;25.77;;;15.63;;
84244;SDS011;74383;44.552;18.100;2024-02-26T03:57:46;30.92;;;15.90;;
84244;SDS011;74383;44.552;18.100;2024-02-26T04:00:12;29.23;;;15.93;;
84244;SDS011;74383;44.552;18.100;2024-02-26T04:02:38;31.60;;;19.10;;
84244;SDS011;74383;44.552;18.100;2024-02-26T04:05:04;27.00;;;16.25;;
84244;SDS011;74383;44.552;18.100;2024-02-26T04:07:30;27.60;;;14.38;;
84244;SDS011;74383;44.552;18.100;2024-02-26T04:09:55;38.28;;;19.48;;
84244;SDS011;74383;44.552;18.100;2024-02-26T04:12:21;40.67;;;19.38;;
84244;SDS011;74383;44.552;18.100;2024-02-26T04:14:47;51.95;;;22.67;;
84244;SDS011;74383;44.552;18.100;2024-02-26T04:17:12;51.00;;;23.70;;
84244;SDS011;74383;44.552;18.100;2024-02-26T04:19:38;56.35;;;23.85;;
84244;SDS011;74383;44.552;18.100;2024-02-26T04:22:03;47.22;;;22.15;;
84244;SDS011;74383;44.552;18.100;2024-02-26T04:24:30;36.83;;;17.77;;
84244;SDS011;74383;44.552;18.100;2024-02-26T04:26:56;39.20;;;17.77;;
84244;SDS011;74383;44.552;18.100;2024-02-26T04:29:21;37.75;;;18.58;;
84244;SDS011;74383;44.552;18.100;2024-02-26T04:31:47;36.35;;;18.10;;
84244;SDS011;74383;44.552;18.100;2024-02-26T04:34:13;40.13;;;19.92;;
84244;SDS011;74383;44.552;18.100;2024-02-26T04:36:38;38.65;;;19.33;;
84244;SDS011;74383;44.552;18.100;2024-02-26T04:39:04;40.50;;;19.42;;
84244;SDS011;74383;44.552;18.100;2024-02-26T04:41:30;40.33;;;19.75;;
84244;SDS011;74383;44.552;18.100;2024-02-26T04:43:55;43.45;;;20.48;;
84244;SDS011;74383;44.552;18.100;2024-02-26T04:46:21;41.83;;;20.52;;
84244;SDS011;74383;44.552;18.100;2024-02-26T04:48:47;46.10;;;21.27;;
84244;SDS011;74383;44.552;18.100;2024-02-26T04:51:13;41.40;;;21.27;;
84244;SDS011;74383;44.552;18.100;2024-02-26T04:53:38;43.22;;;20.88;;
84244;SDS011;74383;44.552;18.100;2024-02-26T04:56:04;43.75;;;21.67;;
84244;SDS011;74383;44.552;18.100;2024-02-26T04:58:30;44.10;;;20.98;;
84244;SDS011;74383;44.552;18.100;2024-02-26T05:00:55;52.47;;;21.83;;
84244;SDS011;74383;44.552;18.100;2024-02-26T05:03:21;65.22;;;32.00;;
84244;SDS011;74383;44.552;18.100;2024-02-26T05:05:47;55.05;;;30.17;;
84244;SDS011;74383;44.552;18.100;2024-02-26T05:08:12;91.35;;;56.38;;
84244;SDS011;74383;44.552;18.100;2024-02-26T05:10:38;47.75;;;26.63;;
84244;SDS011;74383;44.552;18.100;2024-02-26T05:13:08;48.80;;;30.15;;
84244;SDS011;74383;44.552;18.100;2024-02-26T05:15:34;50.60;;;29.17;;
84244;SDS011;74383;44.552;18.100;2024-02-26T05:18:01;66.03;;;35.35;;
84244;SDS011;74383;44.552;18.100;2024-02-26T05:20:26;52.33;;;27.88;;
84244;SDS011;74383;44.552;18.100;2024-02-26T05:22:52;37.10;;;22.50;;
84244;SDS011;74383;44.552;18.100;2024-02-26T05:25:18;41.47;;;23.20;;
84244;SDS011;74383;44.552;18.100;2024-02-26T05:27:43;64.20;;;38.03;;
84244;SDS011;74383;44.552;18.100;2024-02-26T05:30:10;41.30;;;24.58;;
84244;SDS011;74383;44.552;18.100;2024-02-26T05:32:36;32.78;;;18.30;;
84244;SDS011;74383;44.552;18.100;2024-02-26T05:35:02;33.17;;;17.33;;
84244;SDS011;74383;44.552;18.100;2024-02-26T05:37:31;32.83;;;18.13;;
84244;SDS011;74383;44.552;18.100;2024-02-26T05:39:56;33.30;;;18.73;;
84244;SDS011;74383;44.552;18.100;2024-02-26T05:42:22;36.63;;;19.20;;
84244;SDS011;74383;44.552;18.100;2024-02-26T05:44:48;35.50;;;19.30;;
84244;SDS011;74383;44.552;18.100;2024-02-26T05:47:13;44.83;;;23.63;;
84244;SDS011;74383;44.552;18.100;2024-02-26T05:49:39;45.65;;;23.33;;
84244;SDS011;74383;44.552;18.100;2024-02-26T05:52:05;53.63;;;24.95;;
84244;SDS011;74383;44.552;18.100;2024-02-26T05:54:31;66.30;;;31.88;;
84244;SDS011;74383;44.552;18.100;2024-02-26T05:56:57;79.07;;;37.30;;
84244;SDS011;74383;44.552;18.100;2024-02-26T05:59:23;62.72;;;25.77;;
84244;SDS011;74383;44.552;18.100;2024-02-26T06:01:49;49.65;;;22.58;;
84244;SDS011;74383;44.552;18.100;2024-02-26T06:04:14;52.65;;;23.38;;
84244;SDS011;74383;44.552;18.100;2024-02-26T06:06:40;47.72;;;21.98;;
84244;SDS011;74383;44.552;18.100;2024-02-26T06:09:06;51.58;;;21.23;;
84244;SDS011;74383;44.552;18.100;2024-02-26T06:11:31;52.42;;;22.15;;
84244;SDS011;74383;44.552;18.100;2024-02-26T06:13:57;43.95;;;21.70;;
84244;SDS011;74383;44.552;18.100;2024-02-26T06:16:23;53.28;;;25.10;;
84244;SDS011;74383;44.552;18.100;2024-02-26T06:18:49;46.53;;;23.30;;
84244;SDS011;74383;44.552;18.100;2024-02-26T06:21:14;54.88;;;26.55;;
84244;SDS011;74383;44.552;18.100;2024-02-26T06:23:40;46.58;;;24.23;;
84244;SDS011;74383;44.552;18.100;2024-02-26T06:26:06;50.03;;;25.88;;
84244;SDS011;74383;44.552;18.100;2024-02-26T06:28:31;49.17;;;24.88;;
84244;SDS011;74383;44.552;18.100;2024-02-26T06:30:59;45.42;;;24.52;;
84244;SDS011;74383;44.552;18.100;2024-02-26T06:33:24;47.13;;;26.05;;
84244;SDS011;74383;44.552;18.100;2024-02-26T06:35:50;74.15;;;42.17;;
84244;SDS011;74383;44.552;18.100;2024-02-26T06:38:16;26.00;;;16.75;;
84244;SDS011;74383;44.552;18.100;2024-02-26T06:40:43;25.90;;;14.02;;
84244;SDS011;74383;44.552;18.100;2024-02-26T06:43:09;30.85;;;18.13;;
84244;SDS011;74383;44.552;18.100;2024-02-26T06:45:35;34.67;;;20.75;;
84244;SDS011;74383;44.552;18.100;2024-02-26T06:48:01;43.00;;;21.52;;
84244;SDS011;74383;44.552;18.100;2024-02-26T06:50:27;55.67;;;27.10;;
84244;SDS011;74383;44.552;18.100;2024-02-26T06:52:53;64.35;;;30.90;;
84244;SDS011;74383;44.552;18.100;2024-02-26T06:55:19;61.65;;;29.13;;
84244;SDS011;74383;44.552;18.100;2024-02-26T06:57:44;62.92;;;28.85;;
84244;SDS011;74383;44.552;18.100;2024-02-26T07:00:11;55.60;;;26.40;;
84244;SDS011;74383;44.552;18.100;2024-02-26T07:02:39;51.47;;;23.90;;
84244;SDS011;74383;44.552;18.100;2024-02-26T07:05:06;53.22;;;24.13;;
84244;SDS011;74383;44.552;18.100;2024-02-26T07:07:32;48.97;;;23.08;;
84244;SDS011;74383;44.552;18.100;2024-02-26T07:09:58;52.35;;;24.73;;
84244;SDS011;74383;44.552;18.100;2024-02-26T07:12:24;51.72;;;23.80;;
84244;SDS011;74383;44.552;18.100;2024-02-26T07:14:49;57.67;;;30.08;;
84244;SDS011;74383;44.552;18.100;2024-02-26T07:17:15;51.25;;;25.20;;
84244;SDS011;74383;44.552;18.100;2024-02-26T07:19:41;47.55;;;24.65;;
84244;SDS011;74383;44.552;18.100;2024-02-26T07:22:07;47.70;;;25.23;;
84244;SDS011;74383;44.552;18.100;2024-02-26T07:24:34;39.13;;;21.25;;
84244;SDS011;74383;44.552;18.100;2024-02-26T07:27:00;45.70;;;24.63;;
84244;SDS011;74383;44.552;18.100;2024-02-26T07:29:25;37.60;;;19.38;;
84244;SDS011;74383;44.552;18.100;2024-02-26T07:31:51;33.03;;;18.42;;
84244;SDS011;74383;44.552;18.100;2024-02-26T07:34:16;36.15;;;17.58;;
84244;SDS011;74383;44.552;18.100;2024-02-26T07:36:42;37.80;;;20.95;;
84244;SDS011;74383;44.552;18.100;2024-02-26T07:39:08;34.55;;;18.92;;
84244;SDS011;74383;44.552;18.100;2024-02-26T07:41:33;36.45;;;19.95;;
84244;SDS011;74383;44.552;18.100;2024-02-26T07:43:59;32.15;;;18.88;;
84244;SDS011;74383;44.552;18.100;2024-02-26T07:46:25;36.22;;;20.70;;
84244;SDS011;74383;44.552;18.100;2024-02-26T07:48:50;35.10;;;21.75;;
84244;SDS011;74383;44.552;18.100;2024-02-26T07:51:16;35.92;;;20.55;;
84244;SDS011;74383;44.552;18.100;2024-02-26T07:53:42;31.25;;;19.42;;
84244;SDS011;74383;44.552;18.100;2024-02-26T07:56:08;30.58;;;18.40;;
84244;SDS011;74383;44.552;18.100;2024-02-26T07:58:34;32.55;;;19.27;;
84244;SDS011;74383;44.552;18.100;2024-02-26T08:01:00;32.28;;;21.75;;
84244;SDS011;74383;44.552;18.100;2024-02-26T08:03:26;38.45;;;23.40;;
84244;SDS011;74383;44.552;18.100;2024-02-26T08:05:52;34.85;;;20.00;;
84244;SDS011;74383;44.552;18.100;2024-02-26T08:08:18;35.47;;;21.70;;
84244;SDS011;74383;44.552;18.100;2024-02-26T08:10:43;35.03;;;19.30;;
84244;SDS011;74383;44.552;18.100;2024-02-26T08:13:09;42.70;;;22.70;;
84244;SDS011;74383;44.552;18.100;2024-02-26T08:15:35;45.38;;;26.98;;
84244;SDS011;74383;44.552;18.100;2024-02-26T08:18:02;39.10;;;22.63;;
84244;SDS011;74383;44.552;18.100;2024-02-26T08:20:29;38.00;;;21.90;;
84244;SDS011;74383;44.552;18.100;2024-02-26T08:22:55;43.55;;;22.92;;
84244;SDS011;74383;44.552;18.100;2024-02-26T08:25:21;38.47;;;20.90;;
84244;SDS011;74383;44.552;18.100;2024-02-26T08:27:47;41.35;;;23.13;;
84244;SDS011;74383;44.552;18.100;2024-02-26T08:30:14;54.47;;;30.17;;
84244;SDS011;74383;44.552;18.100;2024-02-26T08:32:45;45.05;;;25.00;;
84244;SDS011;74383;44.552;18.100;2024-02-26T08:35:12;46.90;;;24.45;;
84244;SDS011;74383;44.552;18.100;2024-02-26T08:37:38;54.75;;;32.47;;
84244;SDS011;74383;44.552;18.100;2024-02-26T08:40:05;42.15;;;21.88;;
84244;SDS011;74383;44.552;18.100;2024-02-26T08:42:31;47.70;;;29.17;;
84244;SDS011;74383;44.552;18.100;2024-02-26T08:44:57;37.45;;;23.42;;
84244;SDS011;74383;44.552;18.100;2024-02-26T08:47:25;47.30;;;27.38;;
84244;SDS011;74383;44.552;18.100;2024-02-26T08:49:51;33.45;;;19.88;;
84244;SDS011;74383;44.552;18.100;2024-02-26T08:52:17;35.35;;;21.13;;
84244;SDS011;74383;44.552;18.100;2024-02-26T08:54:46;38.95;;;21.75;;
84244;SDS011;74383;44.552;18.100;2024-02-26T08:57:13;38.58;;;22.42;;
84244;SDS011;74383;44.552;18.100;2024-02-26T08:59:38;39.25;;;24.17;;
84244;SDS011;74383;44.552;18.100;2024-02-26T09:02:04;37.97;;;23.33;;
84244;SDS011;74383;44.552;18.100;2024-02-26T09:04:29;39.45;;;24.60;;
84244;SDS011;74383;44.552;18.100;2024-02-26T09:06:55;41.25;;;23.83;;
84244;SDS011;74383;44.552;18.100;2024-02-26T09:09:21;34.50;;;20.80;;
84244;SDS011;74383;44.552;18.100;2024-02-26T09:11:47;38.10;;;20.92;;
84244;SDS011;74383;44.552;18.100;2024-02-26T09:14:16;37.08;;;25.35;;
84244;SDS011;74383;44.552;18.100;2024-02-26T09:16:42;33.70;;;19.80;;
84244;SDS011;74383;44.552;18.100;2024-02-26T09:19:08;38.65;;;22.33;;
84244;SDS011;74383;44.552;18.100;2024-02-26T09:21:33;37.90;;;20.95;;
84244;SDS011;74383;44.552;18.100;2024-02-26T09:23:59;28.33;;;17.33;;
84244;SDS011;74383;44.552;18.100;2024-02-26T09:26:24;36.47;;;20.23;;
84244;SDS011;74383;44.552;18.100;2024-02-26T09:28:50;24.95;;;14.15;;
84244;SDS011;74383;44.552;18.100;2024-02-26T09:31:17;25.63;;;14.63;;
84244;SDS011;74383;44.552;18.100;2024-02-26T09:33:43;21.65;;;12.65;;
84244;SDS011;74383;44.552;18.100;2024-02-26T09:36:09;24.35;;;14.98;;
84244;SDS011;74383;44.552;18.100;2024-02-26T09:38:36;24.80;;;13.45;;
84244;SDS011;74383;44.552;18.100;2024-02-26T09:41:04;21.50;;;13.45;;
84244;SDS011;74383;44.552;18.100;2024-02-26T09:43:34;32.13;;;19.52;;
84244;SDS011;74383;44.552;18.100;2024-02-26T09:46:00;29.85;;;16.75;;
84244;SDS011;74383;44.552;18.100;2024-02-26T09:48:26;28.30;;;17.63;;
84244;SDS011;74383;44.552;18.100;2024-02-26T09:50:54;31.10;;;17.33;;
84244;SDS011;74383;44.552;18.100;2024-02-26T09:53:20;25.23;;;16.00;;
84244;SDS011;74383;44.552;18.100;2024-02-26T09:55:47;43.80;;;21.98;;
84244;SDS011;74383;44.552;18.100;2024-02-26T09:58:13;29.75;;;14.77;;
84244;SDS011;74383;44.552;18.100;2024-02-26T10:00:43;15.82;;;10.43;;
84244;SDS011;74383;44.552;18.100;2024-02-26T10:03:16;15.50;;;9.48;;
84244;SDS011;74383;44.552;18.100;2024-02-26T10:05:46;19.95;;;10.85;;
84244;SDS011;74383;44.552;18.100;2024-02-26T10:08:15;12.07;;;8.05;;
84244;SDS011;74383;44.552;18.100;2024-02-26T10:10:43;18.90;;;8.95;;
84244;SDS011;74383;44.552;18.100;2024-02-26T10:13:10;14.15;;;8.23;;
84244;SDS011;74383;44.552;18.100;2024-02-26T10:15:37;11.13;;;7.10;;
84244;SDS011;74383;44.552;18.100;2024-02-26T10:18:06;9.55;;;5.85;;
84244;SDS011;74383;44.552;18.100;2024-02-26T10:20:32;10.75;;;6.32;;
84244;SDS011;74383;44.552;18.100;2024-02-26T10:22:58;13.68;;;9.77;;
84244;SDS011;74383;44.552;18.100;2024-02-26T10:25:23;16.67;;;8.95;;
84244;SDS011;74383;44.552;18.100;2024-02-26T10:27:49;11.10;;;6.07;;
84244;SDS011;74383;44.552;18.100;2024-02-26T10:32:51;12.02;;;7.78;;
84244;SDS011;74383;44.552;18.100;2024-02-26T10:35:17;13.18;;;8.98;;
84244;SDS011;74383;44.552;18.100;2024-02-26T10:37:43;10.77;;;5.95;;
84244;SDS011;74383;44.552;18.100;2024-02-26T10:40:15;19.55;;;12.00;;
84244;SDS011;74383;44.552;18.100;2024-02-26T10:42:42;15.68;;;7.03;;
84244;SDS011;74383;44.552;18.100;2024-02-26T10:45:09;10.02;;;5.30;;
84244;SDS011;74383;44.552;18.100;2024-02-26T10:47:38;11.63;;;5.47;;
84244;SDS011;74383;44.552;18.100;2024-02-26T10:50:06;7.25;;;4.13;;
84244;SDS011;74383;44.552;18.100;2024-02-26T10:52:33;14.30;;;6.95;;
84244;SDS011;74383;44.552;18.100;2024-02-26T10:55:02;7.82;;;4.13;;
84244;SDS011;74383;44.552;18.100;2024-02-26T10:57:32;7.45;;;4.47;;
84244;SDS011;74383;44.552;18.100;2024-02-26T11:00:10;11.07;;;5.35;;
84244;SDS011;74383;44.552;18.100;2024-02-26T11:02:38;11.18;;;6.35;;
84244;SDS011;74383;44.552;18.100;2024-02-26T11:05:06;10.65;;;6.57;;
84244;SDS011;74383;44.552;18.100;2024-02-26T11:07:32;9.95;;;5.70;;
84244;SDS011;74383;44.552;18.100;2024-02-26T11:10:01;4.25;;;3.13;;
84244;SDS011;74383;44.552;18.100;2024-02-26T11:12:29;6.78;;;4.00;;
84244;SDS011;74383;44.552;18.100;2024-02-26T11:14:56;23.20;;;11.45;;
84244;SDS011;74383;44.552;18.100;2024-02-26T11:17:30;7.07;;;4.90;;
84244;SDS011;74383;44.552;18.100;2024-02-26T11:19:57;7.65;;;4.32;;
84244;SDS011;74383;44.552;18.100;2024-02-26T11:22:26;8.02;;;4.50;;
84244;SDS011;74383;44.552;18.100;2024-02-26T11:24:52;7.85;;;4.50;;
84244;SDS011;74383;44.552;18.100;2024-02-26T11:27:21;11.27;;;5.15;;
84244;SDS011;74383;44.552;18.100;2024-02-26T11:29:51;16.55;;;9.00;;
84244;SDS011;74383;44.552;18.100;2024-02-26T11:32:19;15.15;;;6.63;;
84244;SDS011;74383;44.552;18.100;2024-02-26T11:34:44;8.95;;;4.47;;
84244;SDS011;74383;44.552;18.100;2024-02-26T11:37:13;6.97;;;3.70;;
84244;SDS011;74383;44.552;18.100;2024-02-26T11:39:40;38.28;;;15.10;;
84244;SDS011;74383;44.552;18.100;2024-02-26T11:42:07;7.20;;;3.88;;
84244;SDS011;74383;44.552;18.100;2024-02-26T11:44:34;11.23;;;7.90;;
84244;SDS011;74383;44.552;18.100;2024-02-26T11:49:36;15.50;;;7.10;;
84244;SDS011;74383;44.552;18.100;2024-02-26T11:52:04;8.02;;;3.75;;
84244;SDS011;74383;44.552;18.100;2024-02-26T11:55:15;5.15;;;3.15;;
84244;SDS011;74383;44.552;18.100;2024-02-26T11:57:38;6.88;;;4.15;;
84244;SDS011;74383;44.552;18.100;2024-02-26T12:00:11;6.25;;;4.75;;
84244;SDS011;74383;44.552;18.100;2024-02-26T12:02:47;39.30;;;22.10;;
84244;SDS011;74383;44.552;18.100;2024-02-26T12:05:15;6.50;;;3.25;;
84244;SDS011;74383;44.552;18.100;2024-02-26T12:07:43;8.40;;;5.25;;
84244;SDS011;74383;44.552;18.100;2024-02-26T12:10:15;6.20;;;3.17;;
84244;SDS011;74383;44.552;18.100;2024-02-26T12:13:10;15.23;;;10.10;;
84244;SDS011;74383;44.552;18.100;2024-02-26T12:15:56;16.92;;;11.45;;
84244;SDS011;74383;44.552;18.100;2024-02-26T12:18:23;5.70;;;3.75;;
84244;SDS011;74383;44.552;18.100;2024-02-26T12:21:00;13.52;;;7.18;;
84244;SDS011;74383;44.552;18.100;2024-02-26T12:23:26;6.28;;;3.95;;
84244;SDS011;74383;44.552;18.100;2024-02-26T12:25:53;8.75;;;3.63;;
84244;SDS011;74383;44.552;18.100;2024-02-26T12:28:23;6.18;;;3.72;;
84244;SDS011;74383;44.552;18.100;2024-02-26T12:30:53;8.10;;;4.13;;
84244;SDS011;74383;44.552;18.100;2024-02-26T12:33:19;6.05;;;3.58;;
84244;SDS011;74383;44.552;18.100;2024-02-26T12:35:45;25.30;;;10.80;;
84244;SDS011;74383;44.552;18.100;2024-02-26T12:38:14;6.20;;;3.88;;
84244;SDS011;74383;44.552;18.100;2024-02-26T12:40:40;5.82;;;3.38;;
84244;SDS011;74383;44.552;18.100;2024-02-26T12:43:06;12.27;;;7.68;;
84244;SDS011;74383;44.552;18.100;2024-02-26T12:45:38;35.55;;;19.33;;
84244;SDS011;74383;44.552;18.100;2024-02-26T12:48:06;11.27;;;5.90;;
84244;SDS011;74383;44.552;18.100;2024-02-26T12:50:32;11.95;;;5.53;;
84244;SDS011;74383;44.552;18.100;2024-02-26T12:52:58;13.50;;;6.40;;
84244;SDS011;74383;44.552;18.100;2024-02-26T12:55:24;7.70;;;3.30;;
84244;SDS011;74383;44.552;18.100;2024-02-26T12:57:51;30.33;;;12.30;;
84244;SDS011;74383;44.552;18.100;2024-02-26T13:00:21;17.63;;;10.77;;
84244;SDS011;74383;44.552;18.100;2024-02-26T13:02:49;17.00;;;13.63;;
84244;SDS011;74383;44.552;18.100;2024-02-26T13:05:15;13.48;;;6.60;;
84244;SDS011;74383;44.552;18.100;2024-02-26T13:07:43;17.52;;;8.30;;
84244;SDS011;74383;44.552;18.100;2024-02-26T13:10:11;4.35;;;3.42;;
84244;SDS011;74383;44.552;18.100;2024-02-26T13:12:38;7.97;;;4.53;;
84244;SDS011;74383;44.552;18.100;2024-02-26T13:15:08;6.97;;;3.53;;
84244;SDS011;74383;44.552;18.100;2024-02-26T13:17:40;53.30;;;29.58;;
84244;SDS011;74383;44.552;18.100;2024-02-26T13:20:07;6.25;;;4.05;;
84244;SDS011;74383;44.552;18.100;2024-02-26T13:22:35;16.20;;;7.97;;
84244;SDS011;74383;44.552;18.100;2024-02-26T13:25:03;6.30;;;3.00;;
84244;SDS011;74383;44.552;18.100;2024-02-26T13:27:29;25.15;;;10.57;;
84244;SDS011;74383;44.552;18.100;2024-02-26T13:32:52;6.70;;;3.90;;
84244;SDS011;74383;44.552;18.100;2024-02-26T13:35:18;6.13;;;3.78;;
84244;SDS011;74383;44.552;18.100;2024-02-26T13:37:44;49.85;;;20.17;;
84244;SDS011;74383;44.552;18.100;2024-02-26T13:40:09;13.88;;;6.88;;
84244;SDS011;74383;44.552;18.100;2024-02-26T13:42:36;6.78;;;3.55;;
84244;SDS011;74383;44.552;18.100;2024-02-26T13:45:03;5.03;;;2.70;;
84244;SDS011;74383;44.552;18.100;2024-02-26T13:47:33;11.95;;;6.53;;
84244;SDS011;74383;44.552;18.100;2024-02-26T13:49:59;8.05;;;3.92;;
84244;SDS011;74383;44.552;18.100;2024-02-26T13:52:26;7.78;;;3.38;;
84244;SDS011;74383;44.552;18.100;2024-02-26T13:54:52;6.70;;;3.70;;
84244;SDS011;74383;44.552;18.100;2024-02-26T13:57:19;7.13;;;3.58;;
84244;SDS011;74383;44.552;18.100;2024-02-26T13:59:45;5.95;;;3.67;;
84244;SDS011;74383;44.552;18.100;2024-02-26T14:02:10;5.07;;;2.97;;
84244;SDS011;74383;44.552;18.100;2024-02-26T14:04:36;8.20;;;3.97;;
84244;SDS011;74383;44.552;18.100;2024-02-26T14:07:02;7.10;;;4.03;;
84244;SDS011;74383;44.552;18.100;2024-02-26T14:09:28;8.07;;;4.55;;
84244;SDS011;74383;44.552;18.100;2024-02-26T14:11:54;8.38;;;5.50;;
84244;SDS011;74383;44.552;18.100;2024-02-26T14:14:20;8.32;;;3.85;;
84244;SDS011;74383;44.552;18.100;2024-02-26T14:16:45;6.00;;;4.30;;
84244;SDS011;74383;44.552;18.100;2024-02-26T14:19:11;6.88;;;4.93;;